Terminal Aerodrome Forecast
Issued by NWS

Home | Current Version | Previous Version | Text Only | Print | Product List | Glossary On
Versions: 1 2 3 4 5 6 7 8 9 10 11 12 13 14 15 16 17 18 19 20 21 22 23 24 25 26 27 28 29 30 31 32 33 34 35 36 37 38 39 40 41 42 43 44 45 46 47
000
FTUS45 KGJT 010803 AAA
TAFASE
TAF AMD
KASE 010803Z 0108/0206 15003KT 4SM -SN BR SCT015 OVC035
      TEMPO 0108/0112 1 1/2SM -SN BR OVC011
     FM011400 17004KT 4SM -SN BR SCT015 OVC025
     FM011800 36007KT P6SM VCSH BKN040
     FM012100 15004KT 4SM -SN BR OVC020=

USA.gov is the U.S. government's official web portal to all federal, state and local government web resources and services.